Terminal Aerodrome Forecast
Issued by NWS Jackson, MS

Home | Current Version | Previous Version | Text Only | Print | Product List | Glossary On
Versions: 1 2 3 4 5 6 7 8 9 10 11 12
000
FTUS44 KJAN 311100
TAFJAN
TAF
KJAN 311123Z 3112/0112 00000KT P6SM VCSH OVC100
     FM311300 06005KT 6SM -RA BR BKN060 OVC100
     FM311900 02007KT P6SM VCSH SCT040 OVC060
     FM010000 07003KT P6SM OVC040=

USA.gov is the U.S. government's official web portal to all federal, state and local government web resources and services.